sensor_id;sensor_type;location;lat;lon;timestamp;P1;durP1;ratioP1;P2;durP2;ratioP2
6420;SDS011;3243;50.958;7.012;2023-04-24T00:01:08;2.27;;;1.60;;
6420;SDS011;3243;50.958;7.012;2023-04-24T00:03:35;1.70;;;1.47;;
6420;SDS011;3243;50.958;7.012;2023-04-24T00:06:03;1.50;;;1.40;;
6420;SDS011;3243;50.958;7.012;2023-04-24T00:08:31;1.53;;;1.43;;
6420;SDS011;3243;50.958;7.012;2023-04-24T00:10:58;1.30;;;1.20;;
6420;SDS011;3243;50.958;7.012;2023-04-24T00:13:25;1.63;;;1.53;;
6420;SDS011;3243;50.958;7.012;2023-04-24T00:15:54;1.60;;;1.50;;
6420;SDS011;3243;50.958;7.012;2023-04-24T00:18:21;1.53;;;1.43;;
6420;SDS011;3243;50.958;7.012;2023-04-24T00:20:49;1.80;;;1.50;;
6420;SDS011;3243;50.958;7.012;2023-04-24T00:23:15;1.50;;;1.40;;
6420;SDS011;3243;50.958;7.012;2023-04-24T00:25:42;1.40;;;1.30;;
6420;SDS011;3243;50.958;7.012;2023-04-24T00:28:09;1.50;;;1.40;;
6420;SDS011;3243;50.958;7.012;2023-04-24T00:30:36;1.70;;;1.60;;
6420;SDS011;3243;50.958;7.012;2023-04-24T00:33:03;1.50;;;1.40;;
6420;SDS011;3243;50.958;7.012;2023-04-24T00:35:29;1.80;;;1.70;;
6420;SDS011;3243;50.958;7.012;2023-04-24T00:37:56;2.23;;;1.60;;
6420;SDS011;3243;50.958;7.012;2023-04-24T00:40:23;1.60;;;1.50;;
6420;SDS011;3243;50.958;7.012;2023-04-24T00:42:50;3.10;;;1.70;;
6420;SDS011;3243;50.958;7.012;2023-04-24T00:45:17;1.57;;;1.47;;
6420;SDS011;3243;50.958;7.012;2023-04-24T00:47:43;1.53;;;1.43;;
6420;SDS011;3243;50.958;7.012;2023-04-24T00:50:12;1.63;;;1.53;;
6420;SDS011;3243;50.958;7.012;2023-04-24T00:52:41;1.60;;;1.50;;
6420;SDS011;3243;50.958;7.012;2023-04-24T00:55:08;1.67;;;1.57;;
6420;SDS011;3243;50.958;7.012;2023-04-24T00:57:35;1.50;;;1.40;;
6420;SDS011;3243;50.958;7.012;2023-04-24T01:00:02;1.73;;;1.30;;
6420;SDS011;3243;50.958;7.012;2023-04-24T01:02:31;1.70;;;1.60;;
6420;SDS011;3243;50.958;7.012;2023-04-24T01:05:01;2.67;;;1.50;;
6420;SDS011;3243;50.958;7.012;2023-04-24T01:07:28;2.07;;;1.53;;
6420;SDS011;3243;50.958;7.012;2023-04-24T01:09:55;2.13;;;1.40;;
6420;SDS011;3243;50.958;7.012;2023-04-24T01:12:22;1.97;;;1.70;;
6420;SDS011;3243;50.958;7.012;2023-04-24T01:14:49;2.37;;;1.53;;
6420;SDS011;3243;50.958;7.012;2023-04-24T01:17:16;1.63;;;1.50;;
6420;SDS011;3243;50.958;7.012;2023-04-24T01:19:43;1.80;;;1.70;;
6420;SDS011;3243;50.958;7.012;2023-04-24T01:22:13;1.73;;;1.60;;
6420;SDS011;3243;50.958;7.012;2023-04-24T01:24:41;2.13;;;1.60;;
6420;SDS011;3243;50.958;7.012;2023-04-24T01:27:09;2.23;;;1.67;;
6420;SDS011;3243;50.958;7.012;2023-04-24T01:29:37;2.97;;;1.60;;
6420;SDS011;3243;50.958;7.012;2023-04-24T01:32:04;1.60;;;1.50;;
6420;SDS011;3243;50.958;7.012;2023-04-24T01:34:31;1.57;;;1.47;;
6420;SDS011;3243;50.958;7.012;2023-04-24T01:36:58;1.80;;;1.70;;
6420;SDS011;3243;50.958;7.012;2023-04-24T01:39:26;2.17;;;1.70;;
6420;SDS011;3243;50.958;7.012;2023-04-24T01:41:54;2.30;;;2.10;;
6420;SDS011;3243;50.958;7.012;2023-04-24T01:44:23;4.20;;;1.93;;
6420;SDS011;3243;50.958;7.012;2023-04-24T01:46:49;3.57;;;2.20;;
6420;SDS011;3243;50.958;7.012;2023-04-24T01:49:17;4.33;;;2.87;;
6420;SDS011;3243;50.958;7.012;2023-04-24T01:51:44;3.93;;;2.60;;
6420;SDS011;3243;50.958;7.012;2023-04-24T01:54:11;4.33;;;2.80;;
6420;SDS011;3243;50.958;7.012;2023-04-24T01:56:41;5.53;;;2.90;;
6420;SDS011;3243;50.958;7.012;2023-04-24T01:59:09;4.63;;;2.80;;
6420;SDS011;3243;50.958;7.012;2023-04-24T02:01:37;3.33;;;3.03;;
6420;SDS011;3243;50.958;7.012;2023-04-24T02:04:05;4.97;;;3.10;;
6420;SDS011;3243;50.958;7.012;2023-04-24T02:06:32;4.00;;;3.37;;
6420;SDS011;3243;50.958;7.012;2023-04-24T02:09:00;4.50;;;3.50;;
6420;SDS011;3243;50.958;7.012;2023-04-24T02:11:27;4.43;;;3.93;;
6420;SDS011;3243;50.958;7.012;2023-04-24T02:13:54;3.83;;;3.43;;
6420;SDS011;3243;50.958;7.012;2023-04-24T02:16:21;3.87;;;3.30;;
6420;SDS011;3243;50.958;7.012;2023-04-24T02:18:48;4.03;;;3.60;;
6420;SDS011;3243;50.958;7.012;2023-04-24T02:21:15;4.47;;;3.70;;
6420;SDS011;3243;50.958;7.012;2023-04-24T02:23:42;7.50;;;4.17;;
6420;SDS011;3243;50.958;7.012;2023-04-24T02:26:09;4.87;;;3.80;;
6420;SDS011;3243;50.958;7.012;2023-04-24T02:28:36;4.90;;;4.40;;
6420;SDS011;3243;50.958;7.012;2023-04-24T02:31:03;6.60;;;3.97;;
6420;SDS011;3243;50.958;7.012;2023-04-24T02:33:31;5.97;;;3.97;;
6420;SDS011;3243;50.958;7.012;2023-04-24T02:35:58;4.80;;;3.90;;
6420;SDS011;3243;50.958;7.012;2023-04-24T02:38:25;6.00;;;4.20;;
6420;SDS011;3243;50.958;7.012;2023-04-24T02:40:52;6.23;;;4.00;;
6420;SDS011;3243;50.958;7.012;2023-04-24T02:43:19;5.80;;;4.20;;
6420;SDS011;3243;50.958;7.012;2023-04-24T02:45:46;6.13;;;3.93;;
6420;SDS011;3243;50.958;7.012;2023-04-24T02:48:13;5.90;;;4.20;;
6420;SDS011;3243;50.958;7.012;2023-04-24T02:50:40;4.70;;;4.20;;
6420;SDS011;3243;50.958;7.012;2023-04-24T02:53:07;6.80;;;4.77;;
6420;SDS011;3243;50.958;7.012;2023-04-24T02:55:34;6.30;;;4.37;;
6420;SDS011;3243;50.958;7.012;2023-04-24T02:58:02;6.57;;;4.37;;
6420;SDS011;3243;50.958;7.012;2023-04-24T03:00:29;5.40;;;4.10;;
6420;SDS011;3243;50.958;7.012;2023-04-24T03:02:56;5.93;;;4.90;;
6420;SDS011;3243;50.958;7.012;2023-04-24T03:05:23;11.77;;;4.63;;
6420;SDS011;3243;50.958;7.012;2023-04-24T03:07:50;6.47;;;4.83;;
6420;SDS011;3243;50.958;7.012;2023-04-24T03:10:18;6.40;;;4.93;;
6420;SDS011;3243;50.958;7.012;2023-04-24T03:12:45;7.27;;;5.10;;
6420;SDS011;3243;50.958;7.012;2023-04-24T03:15:12;9.77;;;5.53;;
6420;SDS011;3243;50.958;7.012;2023-04-24T03:17:39;7.77;;;5.10;;
6420;SDS011;3243;50.958;7.012;2023-04-24T03:20:07;7.83;;;5.50;;
6420;SDS011;3243;50.958;7.012;2023-04-24T03:22:34;7.47;;;5.13;;
6420;SDS011;3243;50.958;7.012;2023-04-24T03:25:01;7.37;;;5.47;;
6420;SDS011;3243;50.958;7.012;2023-04-24T03:27:28;7.30;;;5.30;;
6420;SDS011;3243;50.958;7.012;2023-04-24T03:29:56;6.20;;;5.23;;
6420;SDS011;3243;50.958;7.012;2023-04-24T03:32:23;8.90;;;5.87;;
6420;SDS011;3243;50.958;7.012;2023-04-24T03:34:51;6.10;;;5.10;;
6420;SDS011;3243;50.958;7.012;2023-04-24T03:37:17;7.17;;;5.23;;
6420;SDS011;3243;50.958;7.012;2023-04-24T03:39:44;5.53;;;4.83;;
6420;SDS011;3243;50.958;7.012;2023-04-24T03:42:11;7.27;;;5.37;;
6420;SDS011;3243;50.958;7.012;2023-04-24T03:44:38;7.50;;;5.23;;
6420;SDS011;3243;50.958;7.012;2023-04-24T03:47:05;8.90;;;5.70;;
6420;SDS011;3243;50.958;7.012;2023-04-24T03:49:32;7.40;;;5.40;;
6420;SDS011;3243;50.958;7.012;2023-04-24T03:51:58;6.63;;;5.73;;
6420;SDS011;3243;50.958;7.012;2023-04-24T03:54:25;6.63;;;5.57;;
6420;SDS011;3243;50.958;7.012;2023-04-24T03:56:52;6.93;;;5.47;;
6420;SDS011;3243;50.958;7.012;2023-04-24T03:59:19;9.10;;;5.70;;
6420;SDS011;3243;50.958;7.012;2023-04-24T04:01:46;6.73;;;5.20;;
6420;SDS011;3243;50.958;7.012;2023-04-24T04:04:13;8.93;;;5.70;;
6420;SDS011;3243;50.958;7.012;2023-04-24T04:06:40;8.00;;;5.77;;
6420;SDS011;3243;50.958;7.012;2023-04-24T04:09:08;6.37;;;5.60;;
6420;SDS011;3243;50.958;7.012;2023-04-24T04:11:35;7.93;;;5.80;;
6420;SDS011;3243;50.958;7.012;2023-04-24T04:14:02;5.80;;;5.20;;
6420;SDS011;3243;50.958;7.012;2023-04-24T04:16:29;5.73;;;5.10;;
6420;SDS011;3243;50.958;7.012;2023-04-24T04:18:56;5.90;;;4.83;;
6420;SDS011;3243;50.958;7.012;2023-04-24T04:21:23;7.30;;;4.83;;
6420;SDS011;3243;50.958;7.012;2023-04-24T04:23:51;6.97;;;4.73;;
6420;SDS011;3243;50.958;7.012;2023-04-24T04:26:17;5.13;;;4.57;;
6420;SDS011;3243;50.958;7.012;2023-04-24T04:28:45;5.53;;;5.00;;
6420;SDS011;3243;50.958;7.012;2023-04-24T04:31:13;6.40;;;4.93;;
6420;SDS011;3243;50.958;7.012;2023-04-24T04:33:40;9.00;;;5.30;;
6420;SDS011;3243;50.958;7.012;2023-04-24T04:36:07;6.70;;;5.07;;
6420;SDS011;3243;50.958;7.012;2023-04-24T04:38:34;7.70;;;5.00;;
6420;SDS011;3243;50.958;7.012;2023-04-24T04:41:01;9.70;;;5.13;;
6420;SDS011;3243;50.958;7.012;2023-04-24T04:43:29;6.30;;;5.00;;
6420;SDS011;3243;50.958;7.012;2023-04-24T04:45:57;7.10;;;5.40;;
6420;SDS011;3243;50.958;7.012;2023-04-24T04:48:24;5.90;;;4.80;;
6420;SDS011;3243;50.958;7.012;2023-04-24T04:50:51;6.33;;;4.83;;
6420;SDS011;3243;50.958;7.012;2023-04-24T04:53:18;7.17;;;4.87;;
6420;SDS011;3243;50.958;7.012;2023-04-24T04:55:45;6.70;;;5.00;;
6420;SDS011;3243;50.958;7.012;2023-04-24T04:58:13;6.07;;;5.10;;
6420;SDS011;3243;50.958;7.012;2023-04-24T05:00:40;7.33;;;4.60;;
6420;SDS011;3243;50.958;7.012;2023-04-24T05:03:07;6.83;;;4.70;;
6420;SDS011;3243;50.958;7.012;2023-04-24T05:05:46;8.27;;;5.10;;
6420;SDS011;3243;50.958;7.012;2023-04-24T05:08:13;7.10;;;5.43;;
6420;SDS011;3243;50.958;7.012;2023-04-24T05:10:43;5.83;;;4.37;;
6420;SDS011;3243;50.958;7.012;2023-04-24T05:13:10;7.43;;;5.67;;
6420;SDS011;3243;50.958;7.012;2023-04-24T05:15:39;6.47;;;4.87;;
6420;SDS011;3243;50.958;7.012;2023-04-24T05:18:06;7.37;;;4.83;;
6420;SDS011;3243;50.958;7.012;2023-04-24T05:20:33;7.13;;;4.90;;
6420;SDS011;3243;50.958;7.012;2023-04-24T05:22:59;7.07;;;5.03;;
6420;SDS011;3243;50.958;7.012;2023-04-24T05:25:26;6.37;;;4.77;;
6420;SDS011;3243;50.958;7.012;2023-04-24T05:27:53;6.53;;;4.57;;
6420;SDS011;3243;50.958;7.012;2023-04-24T05:30:21;8.00;;;5.03;;
6420;SDS011;3243;50.958;7.012;2023-04-24T05:32:48;5.80;;;5.20;;
6420;SDS011;3243;50.958;7.012;2023-04-24T05:35:15;5.87;;;5.20;;
6420;SDS011;3243;50.958;7.012;2023-04-24T05:37:42;6.53;;;5.20;;
6420;SDS011;3243;50.958;7.012;2023-04-24T05:40:09;7.30;;;5.30;;
6420;SDS011;3243;50.958;7.012;2023-04-24T05:42:37;6.10;;;5.50;;
6420;SDS011;3243;50.958;7.012;2023-04-24T05:45:03;6.60;;;5.10;;
6420;SDS011;3243;50.958;7.012;2023-04-24T05:47:31;7.53;;;5.30;;
6420;SDS011;3243;50.958;7.012;2023-04-24T05:49:58;6.27;;;5.20;;
6420;SDS011;3243;50.958;7.012;2023-04-24T05:52:24;6.77;;;5.53;;
6420;SDS011;3243;50.958;7.012;2023-04-24T05:54:51;7.60;;;5.57;;
6420;SDS011;3243;50.958;7.012;2023-04-24T05:57:18;7.57;;;5.47;;
6420;SDS011;3243;50.958;7.012;2023-04-24T05:59:45;8.53;;;5.77;;
6420;SDS011;3243;50.958;7.012;2023-04-24T06:02:12;7.00;;;6.13;;
6420;SDS011;3243;50.958;7.012;2023-04-24T06:04:39;8.13;;;5.90;;
6420;SDS011;3243;50.958;7.012;2023-04-24T06:07:06;8.67;;;6.00;;
6420;SDS011;3243;50.958;7.012;2023-04-24T06:09:33;6.33;;;5.73;;
6420;SDS011;3243;50.958;7.012;2023-04-24T06:12:00;7.87;;;6.10;;
6420;SDS011;3243;50.958;7.012;2023-04-24T06:14:27;7.53;;;5.87;;
6420;SDS011;3243;50.958;7.012;2023-04-24T06:16:54;8.93;;;6.47;;
6420;SDS011;3243;50.958;7.012;2023-04-24T06:19:21;7.73;;;6.20;;
6420;SDS011;3243;50.958;7.012;2023-04-24T06:21:48;8.37;;;6.13;;
6420;SDS011;3243;50.958;7.012;2023-04-24T06:24:15;7.83;;;6.27;;
6420;SDS011;3243;50.958;7.012;2023-04-24T06:26:42;10.40;;;6.47;;
6420;SDS011;3243;50.958;7.012;2023-04-24T06:29:09;7.10;;;6.00;;
6420;SDS011;3243;50.958;7.012;2023-04-24T06:31:36;8.43;;;6.17;;
6420;SDS011;3243;50.958;7.012;2023-04-24T06:34:04;6.53;;;5.13;;
6420;SDS011;3243;50.958;7.012;2023-04-24T06:36:31;7.77;;;5.70;;
6420;SDS011;3243;50.958;7.012;2023-04-24T06:39:00;7.07;;;5.40;;
6420;SDS011;3243;50.958;7.012;2023-04-24T06:41:28;6.10;;;4.47;;
6420;SDS011;3243;50.958;7.012;2023-04-24T06:43:55;7.47;;;4.00;;
6420;SDS011;3243;50.958;7.012;2023-04-24T06:46:22;3.40;;;3.10;;
6420;SDS011;3243;50.958;7.012;2023-04-24T06:48:52;4.37;;;2.97;;
6420;SDS011;3243;50.958;7.012;2023-04-24T06:51:25;5.43;;;3.30;;
6420;SDS011;3243;50.958;7.012;2023-04-24T06:53:53;5.23;;;3.20;;
6420;SDS011;3243;50.958;7.012;2023-04-24T06:56:20;5.17;;;3.50;;
6420;SDS011;3243;50.958;7.012;2023-04-24T06:58:47;3.97;;;3.27;;
6420;SDS011;3243;50.958;7.012;2023-04-24T07:01:14;4.73;;;2.93;;
6420;SDS011;3243;50.958;7.012;2023-04-24T07:03:41;3.73;;;2.50;;
6420;SDS011;3243;50.958;7.012;2023-04-24T07:06:08;2.93;;;2.67;;
6420;SDS011;3243;50.958;7.012;2023-04-24T07:08:37;4.10;;;2.70;;
6420;SDS011;3243;50.958;7.012;2023-04-24T07:11:04;3.67;;;2.70;;
6420;SDS011;3243;50.958;7.012;2023-04-24T07:13:31;3.20;;;2.90;;
6420;SDS011;3243;50.958;7.012;2023-04-24T07:15:58;4.03;;;3.00;;
6420;SDS011;3243;50.958;7.012;2023-04-24T07:18:25;2.67;;;2.43;;
6420;SDS011;3243;50.958;7.012;2023-04-24T07:20:52;3.20;;;2.60;;
6420;SDS011;3243;50.958;7.012;2023-04-24T07:23:19;4.60;;;2.47;;
6420;SDS011;3243;50.958;7.012;2023-04-24T07:25:46;2.50;;;2.30;;
6420;SDS011;3243;50.958;7.012;2023-04-24T07:28:13;3.93;;;2.60;;
6420;SDS011;3243;50.958;7.012;2023-04-24T07:30:40;3.43;;;2.70;;
6420;SDS011;3243;50.958;7.012;2023-04-24T07:33:07;2.70;;;2.50;;
6420;SDS011;3243;50.958;7.012;2023-04-24T07:35:34;2.77;;;2.57;;
6420;SDS011;3243;50.958;7.012;2023-04-24T07:38:01;3.37;;;2.47;;
6420;SDS011;3243;50.958;7.012;2023-04-24T07:40:28;3.20;;;2.10;;
6420;SDS011;3243;50.958;7.012;2023-04-24T07:42:55;2.37;;;1.97;;
6420;SDS011;3243;50.958;7.012;2023-04-24T07:45:22;2.20;;;2.00;;
6420;SDS011;3243;50.958;7.012;2023-04-24T07:47:52;3.03;;;2.27;;
6420;SDS011;3243;50.958;7.012;2023-04-24T07:50:19;3.33;;;2.30;;
6420;SDS011;3243;50.958;7.012;2023-04-24T07:52:46;2.10;;;1.90;;
6420;SDS011;3243;50.958;7.012;2023-04-24T07:55:13;1.80;;;1.70;;
6420;SDS011;3243;50.958;7.012;2023-04-24T07:57:40;2.63;;;1.60;;
6420;SDS011;3243;50.958;7.012;2023-04-24T08:00:07;4.00;;;1.90;;
6420;SDS011;3243;50.958;7.012;2023-04-24T08:02:34;1.60;;;1.50;;
6420;SDS011;3243;50.958;7.012;2023-04-24T08:05:01;2.40;;;1.70;;
6420;SDS011;3243;50.958;7.012;2023-04-24T08:07:29;1.90;;;1.67;;
6420;SDS011;3243;50.958;7.012;2023-04-24T08:09:57;3.40;;;1.93;;
6420;SDS011;3243;50.958;7.012;2023-04-24T08:12:25;2.20;;;1.87;;
6420;SDS011;3243;50.958;7.012;2023-04-24T08:14:52;2.40;;;2.20;;
6420;SDS011;3243;50.958;7.012;2023-04-24T08:17:19;1.87;;;1.77;;
6420;SDS011;3243;50.958;7.012;2023-04-24T08:19:46;1.80;;;1.70;;
6420;SDS011;3243;50.958;7.012;2023-04-24T08:22:17;2.10;;;1.80;;
6420;SDS011;3243;50.958;7.012;2023-04-24T08:24:44;2.67;;;1.70;;
6420;SDS011;3243;50.958;7.012;2023-04-24T08:27:11;3.10;;;1.60;;
6420;SDS011;3243;50.958;7.012;2023-04-24T08:29:38;2.27;;;1.90;;
6420;SDS011;3243;50.958;7.012;2023-04-24T08:32:05;1.70;;;1.60;;
6420;SDS011;3243;50.958;7.012;2023-04-24T08:34:33;2.77;;;1.80;;
6420;SDS011;3243;50.958;7.012;2023-04-24T08:37:00;2.43;;;1.70;;
6420;SDS011;3243;50.958;7.012;2023-04-24T08:39:27;3.23;;;1.80;;
6420;SDS011;3243;50.958;7.012;2023-04-24T08:41:55;1.73;;;1.63;;
6420;SDS011;3243;50.958;7.012;2023-04-24T08:44:22;2.70;;;1.80;;
6420;SDS011;3243;50.958;7.012;2023-04-24T08:46:49;2.13;;;1.80;;
6420;SDS011;3243;50.958;7.012;2023-04-24T08:49:17;2.10;;;1.67;;
6420;SDS011;3243;50.958;7.012;2023-04-24T08:51:45;3.30;;;2.00;;
6420;SDS011;3243;50.958;7.012;2023-04-24T08:54:13;2.60;;;2.13;;
6420;SDS011;3243;50.958;7.012;2023-04-24T08:56:40;2.13;;;1.93;;
6420;SDS011;3243;50.958;7.012;2023-04-24T08:59:11;2.90;;;2.10;;
6420;SDS011;3243;50.958;7.012;2023-04-24T09:01:38;2.67;;;2.20;;
6420;SDS011;3243;50.958;7.012;2023-04-24T09:04:07;2.50;;;2.30;;
6420;SDS011;3243;50.958;7.012;2023-04-24T09:06:39;2.80;;;2.40;;
6420;SDS011;3243;50.958;7.012;2023-04-24T09:09:06;3.00;;;2.40;;
6420;SDS011;3243;50.958;7.012;2023-04-24T09:11:34;3.93;;;2.60;;
6420;SDS011;3243;50.958;7.012;2023-04-24T09:14:02;4.83;;;3.30;;
6420;SDS011;3243;50.958;7.012;2023-04-24T09:16:30;4.37;;;3.30;;
6420;SDS011;3243;50.958;7.012;2023-04-24T09:19:01;3.87;;;3.27;;
6420;SDS011;3243;50.958;7.012;2023-04-24T09:21:32;5.83;;;3.67;;
6420;SDS011;3243;50.958;7.012;2023-04-24T09:24:05;4.63;;;3.60;;
6420;SDS011;3243;50.958;7.012;2023-04-24T09:26:36;4.97;;;3.70;;
6420;SDS011;3243;50.958;7.012;2023-04-24T09:29:03;5.10;;;4.60;;
6420;SDS011;3243;50.958;7.012;2023-04-24T09:31:31;5.47;;;4.47;;
6420;SDS011;3243;50.958;7.012;2023-04-24T09:34:02;6.17;;;4.87;;
6420;SDS011;3243;50.958;7.012;2023-04-24T09:36:34;5.70;;;5.10;;
6420;SDS011;3243;50.958;7.012;2023-04-24T09:39:07;9.20;;;5.70;;
6420;SDS011;3243;50.958;7.012;2023-04-24T09:41:43;7.90;;;5.80;;
6420;SDS011;3243;50.958;7.012;2023-04-24T09:44:21;8.13;;;5.87;;
6420;SDS011;3243;50.958;7.012;2023-04-24T09:46:55;7.47;;;5.37;;
6420;SDS011;3243;50.958;7.012;2023-04-24T09:49:29;8.37;;;6.03;;
6420;SDS011;3243;50.958;7.012;2023-04-24T09:52:03;8.23;;;5.70;;
6420;SDS011;3243;50.958;7.012;2023-04-24T09:54:31;8.33;;;5.80;;
6420;SDS011;3243;50.958;7.012;2023-04-24T09:56:58;7.33;;;6.03;;
6420;SDS011;3243;50.958;7.012;2023-04-24T09:59:26;9.27;;;6.30;;
6420;SDS011;3243;50.958;7.012;2023-04-24T10:01:52;8.10;;;6.10;;
6420;SDS011;3243;50.958;7.012;2023-04-24T10:04:20;9.50;;;6.80;;
6420;SDS011;3243;50.958;7.012;2023-04-24T10:06:50;10.07;;;7.00;;
6420;SDS011;3243;50.958;7.012;2023-04-24T10:09:19;8.63;;;6.80;;
6420;SDS011;3243;50.958;7.012;2023-04-24T10:11:48;9.77;;;6.40;;
6420;SDS011;3243;50.958;7.012;2023-04-24T10:14:20;8.87;;;6.30;;
6420;SDS011;3243;50.958;7.012;2023-04-24T10:16:48;9.47;;;6.50;;
6420;SDS011;3243;50.958;7.012;2023-04-24T10:19:16;10.70;;;6.27;;
6420;SDS011;3243;50.958;7.012;2023-04-24T10:21:46;10.17;;;6.40;;
6420;SDS011;3243;50.958;7.012;2023-04-24T10:24:14;8.80;;;6.07;;
6420;SDS011;3243;50.958;7.012;2023-04-24T10:26:42;8.83;;;5.63;;
6420;SDS011;3243;50.958;7.012;2023-04-24T10:29:10;8.10;;;5.20;;
6420;SDS011;3243;50.958;7.012;2023-04-24T10:31:39;6.97;;;4.37;;
6420;SDS011;3243;50.958;7.012;2023-04-24T10:34:07;7.03;;;4.40;;
6420;SDS011;3243;50.958;7.012;2023-04-24T10:36:36;8.23;;;4.87;;
6420;SDS011;3243;50.958;7.012;2023-04-24T10:39:13;6.70;;;4.07;;
6420;SDS011;3243;50.958;7.012;2023-04-24T10:41:42;6.97;;;4.23;;
6420;SDS011;3243;50.958;7.012;2023-04-24T10:44:12;8.00;;;3.83;;
6420;SDS011;3243;50.958;7.012;2023-04-24T10:46:44;6.43;;;3.60;;
6420;SDS011;3243;50.958;7.012;2023-04-24T10:49:19;7.00;;;4.23;;
6420;SDS011;3243;50.958;7.012;2023-04-24T10:52:01;9.10;;;4.43;;
6420;SDS011;3243;50.958;7.012;2023-04-24T10:54:35;8.43;;;5.13;;
6420;SDS011;3243;50.958;7.012;2023-04-24T10:59:49;7.43;;;3.93;;
6420;SDS011;3243;50.958;7.012;2023-04-24T11:02:18;9.13;;;4.33;;
6420;SDS011;3243;50.958;7.012;2023-04-24T11:05:04;6.50;;;3.80;;
6420;SDS011;3243;50.958;7.012;2023-04-24T11:10:45;9.80;;;4.40;;
6420;SDS011;3243;50.958;7.012;2023-04-24T11:13:16;12.27;;;6.37;;
6420;SDS011;3243;50.958;7.012;2023-04-24T11:16:11;12.90;;;6.17;;
6420;SDS011;3243;50.958;7.012;2023-04-24T11:18:49;8.13;;;3.90;;
6420;SDS011;3243;50.958;7.012;2023-04-24T11:21:20;10.03;;;3.63;;
6420;SDS011;3243;50.958;7.012;2023-04-24T11:23:48;8.03;;;3.53;;
6420;SDS011;3243;50.958;7.012;2023-04-24T11:26:21;6.07;;;3.43;;
6420;SDS011;3243;50.958;7.012;2023-04-24T11:28:50;15.10;;;4.97;;
6420;SDS011;3243;50.958;7.012;2023-04-24T11:34:07;8.17;;;3.93;;
6420;SDS011;3243;50.958;7.012;2023-04-24T11:36:40;7.80;;;4.00;;
6420;SDS011;3243;50.958;7.012;2023-04-24T11:39:13;6.93;;;3.87;;
6420;SDS011;3243;50.958;7.012;2023-04-24T11:41:41;6.57;;;3.73;;
6420;SDS011;3243;50.958;7.012;2023-04-24T11:44:08;6.10;;;3.20;;
6420;SDS011;3243;50.958;7.012;2023-04-24T11:46:35;8.83;;;3.60;;
6420;SDS011;3243;50.958;7.012;2023-04-24T11:49:04;10.90;;;4.50;;
6420;SDS011;3243;50.958;7.012;2023-04-24T11:51:31;6.93;;;4.00;;
6420;SDS011;3243;50.958;7.012;2023-04-24T11:54:16;8.80;;;4.13;;
6420;SDS011;3243;50.958;7.012;2023-04-24T11:56:46;6.77;;;4.53;;
6420;SDS011;3243;50.958;7.012;2023-04-24T11:59:13;7.37;;;4.30;;
6420;SDS011;3243;50.958;7.012;2023-04-24T12:01:47;8.60;;;5.20;;
6420;SDS011;3243;50.958;7.012;2023-04-24T12:04:15;11.80;;;5.60;;
6420;SDS011;3243;50.958;7.012;2023-04-24T12:06:59;8.47;;;5.27;;
6420;SDS011;3243;50.958;7.012;2023-04-24T12:09:39;11.60;;;4.97;;
6420;SDS011;3243;50.958;7.012;2023-04-24T12:12:12;7.83;;;4.67;;
6420;SDS011;3243;50.958;7.012;2023-04-24T12:14:42;10.83;;;5.40;;
6420;SDS011;3243;50.958;7.012;2023-04-24T12:17:09;9.03;;;5.17;;
6420;SDS011;3243;50.958;7.012;2023-04-24T12:19:36;7.40;;;4.93;;
6420;SDS011;3243;50.958;7.012;2023-04-24T12:22:04;14.33;;;5.77;;
6420;SDS011;3243;50.958;7.012;2023-04-24T12:24:31;10.87;;;5.77;;
6420;SDS011;3243;50.958;7.012;2023-04-24T12:26:58;8.93;;;5.77;;
6420;SDS011;3243;50.958;7.012;2023-04-24T12:29:27;11.33;;;5.40;;
6420;SDS011;3243;50.958;7.012;2023-04-24T12:31:54;11.07;;;4.97;;
6420;SDS011;3243;50.958;7.012;2023-04-24T12:34:21;10.17;;;5.13;;
6420;SDS011;3243;50.958;7.012;2023-04-24T12:36:51;13.07;;;5.33;;
6420;SDS011;3243;50.958;7.012;2023-04-24T12:39:18;12.07;;;4.93;;
6420;SDS011;3243;50.958;7.012;2023-04-24T12:41:55;10.17;;;5.73;;
6420;SDS011;3243;50.958;7.012;2023-04-24T12:46:57;12.00;;;5.50;;
6420;SDS011;3243;50.958;7.012;2023-04-24T12:49:24;11.07;;;4.47;;
6420;SDS011;3243;50.958;7.012;2023-04-24T12:51:51;8.43;;;3.80;;
6420;SDS011;3243;50.958;7.012;2023-04-24T12:54:18;12.47;;;5.13;;
6420;SDS011;3243;50.958;7.012;2023-04-24T12:56:44;11.47;;;4.33;;
6420;SDS011;3243;50.958;7.012;2023-04-24T12:59:11;10.57;;;4.60;;
6420;SDS011;3243;50.958;7.012;2023-04-24T13:01:38;10.87;;;3.93;;
6420;SDS011;3243;50.958;7.012;2023-04-24T13:04:05;9.77;;;3.70;;
6420;SDS011;3243;50.958;7.012;2023-04-24T13:06:32;11.03;;;4.33;;
6420;SDS011;3243;50.958;7.012;2023-04-24T13:08:59;9.60;;;3.97;;
6420;SDS011;3243;50.958;7.012;2023-04-24T13:11:26;9.30;;;3.70;;
6420;SDS011;3243;50.958;7.012;2023-04-24T13:13:52;8.23;;;3.80;;
6420;SDS011;3243;50.958;7.012;2023-04-24T13:16:20;6.77;;;3.37;;
6420;SDS011;3243;50.958;7.012;2023-04-24T13:18:49;7.70;;;3.77;;
6420;SDS011;3243;50.958;7.012;2023-04-24T13:21:16;15.53;;;4.30;;
6420;SDS011;3243;50.958;7.012;2023-04-24T13:23:43;9.27;;;4.47;;
6420;SDS011;3243;50.958;7.012;2023-04-24T13:26:10;10.53;;;4.03;;
6420;SDS011;3243;50.958;7.012;2023-04-24T13:28:37;9.20;;;4.27;;
6420;SDS011;3243;50.958;7.012;2023-04-24T13:31:04;9.00;;;4.37;;
6420;SDS011;3243;50.958;7.012;2023-04-24T13:33:32;7.60;;;4.00;;
6420;SDS011;3243;50.958;7.012;2023-04-24T13:35:59;9.97;;;3.97;;
6420;SDS011;3243;50.958;7.012;2023-04-24T13:38:26;8.80;;;3.90;;
6420;SDS011;3243;50.958;7.012;2023-04-24T13:40:52;9.40;;;4.63;;
6420;SDS011;3243;50.958;7.012;2023-04-24T13:43:19;9.67;;;3.77;;
6420;SDS011;3243;50.958;7.012;2023-04-24T13:45:46;6.50;;;4.07;;
6420;SDS011;3243;50.958;7.012;2023-04-24T13:48:13;9.77;;;4.00;;
6420;SDS011;3243;50.958;7.012;2023-04-24T13:50:42;7.57;;;3.73;;
6420;SDS011;3243;50.958;7.012;2023-04-24T13:53:09;9.73;;;4.07;;
6420;SDS011;3243;50.958;7.012;2023-04-24T13:55:36;12.10;;;6.43;;
6420;SDS011;3243;50.958;7.012;2023-04-24T13:58:02;8.63;;;3.80;;
6420;SDS011;3243;50.958;7.012;2023-04-24T14:00:30;7.20;;;3.57;;
6420;SDS011;3243;50.958;7.012;2023-04-24T14:02:57;6.77;;;3.63;;
6420;SDS011;3243;50.958;7.012;2023-04-24T14:05:24;9.53;;;4.93;;
6420;SDS011;3243;50.958;7.012;2023-04-24T14:07:51;10.57;;;5.40;;
6420;SDS011;3243;50.958;7.012;2023-04-24T14:10:18;9.13;;;4.37;;
6420;SDS011;3243;50.958;7.012;2023-04-24T14:12:45;10.17;;;3.93;;
6420;SDS011;3243;50.958;7.012;2023-04-24T14:15:12;5.87;;;3.60;;
6420;SDS011;3243;50.958;7.012;2023-04-24T14:17:39;9.13;;;3.40;;
6420;SDS011;3243;50.958;7.012;2023-04-24T14:20:06;8.50;;;3.33;;
6420;SDS011;3243;50.958;7.012;2023-04-24T14:22:33;7.73;;;4.10;;
6420;SDS011;3243;50.958;7.012;2023-04-24T14:25:00;10.93;;;4.80;;
6420;SDS011;3243;50.958;7.012;2023-04-24T14:27:27;9.77;;;4.77;;
6420;SDS011;3243;50.958;7.012;2023-04-24T14:29:53;8.00;;;4.50;;
6420;SDS011;3243;50.958;7.012;2023-04-24T14:32:20;10.17;;;4.30;;
6420;SDS011;3243;50.958;7.012;2023-04-24T14:34:47;7.57;;;4.17;;
6420;SDS011;3243;50.958;7.012;2023-04-24T14:37:14;5.63;;;3.93;;
6420;SDS011;3243;50.958;7.012;2023-04-24T14:39:41;8.27;;;4.53;;
6420;SDS011;3243;50.958;7.012;2023-04-24T14:42:12;6.97;;;3.57;;
6420;SDS011;3243;50.958;7.012;2023-04-24T14:44:39;7.33;;;3.87;;
6420;SDS011;3243;50.958;7.012;2023-04-24T14:47:06;9.83;;;3.77;;
6420;SDS011;3243;50.958;7.012;2023-04-24T14:49:33;9.87;;;4.23;;
6420;SDS011;3243;50.958;7.012;2023-04-24T14:52:00;5.83;;;3.80;;
6420;SDS011;3243;50.958;7.012;2023-04-24T14:54:28;7.30;;;3.93;;
6420;SDS011;3243;50.958;7.012;2023-04-24T14:56:56;7.67;;;3.70;;
6420;SDS011;3243;50.958;7.012;2023-04-24T14:59:23;10.07;;;3.80;;
6420;SDS011;3243;50.958;7.012;2023-04-24T15:01:50;6.83;;;3.73;;
6420;SDS011;3243;50.958;7.012;2023-04-24T15:04:34;6.43;;;3.50;;
6420;SDS011;3243;50.958;7.012;2023-04-24T15:07:01;5.57;;;3.47;;
6420;SDS011;3243;50.958;7.012;2023-04-24T15:09:28;5.87;;;3.43;;
6420;SDS011;3243;50.958;7.012;2023-04-24T15:11:54;4.43;;;3.17;;
6420;SDS011;3243;50.958;7.012;2023-04-24T15:14:21;8.10;;;3.30;;
6420;SDS011;3243;50.958;7.012;2023-04-24T15:16:48;9.77;;;3.70;;
6420;SDS011;3243;50.958;7.012;2023-04-24T15:19:14;8.30;;;3.17;;
6420;SDS011;3243;50.958;7.012;2023-04-24T15:21:41;4.77;;;2.90;;
6420;SDS011;3243;50.958;7.012;2023-04-24T15:24:09;9.43;;;3.90;;
6420;SDS011;3243;50.958;7.012;2023-04-24T15:26:35;8.00;;;4.00;;
6420;SDS011;3243;50.958;7.012;2023-04-24T15:29:02;6.67;;;4.10;;
6420;SDS011;3243;50.958;7.012;2023-04-24T15:31:29;6.97;;;3.60;;